Mobile, AL

5:08 AM CDT on September 01, 2015 (GMT -0500)
Hickory Ridge | | Change Station
CLOSE
Current Station
Personal Weather Station
Location: Mobile, AL
Elevation: 200 ft
Nearby Weather Stations

Elev 200 ft 30.65 °N, 88.18 °W | Updated 7 hours ago

Partly Cloudy
Partly Cloudy
72 °F
Feels Like 72 °F
N
2
Wind Variable Wind from NNW
Gusts mph

Today
High -- | Low -- °F
--% Chance of Precip.
Yesterday
High -- | Low -- °F
Precip. -- in
6:29 AM 7:15 PM
Waning Gibbous, 90% visible
Pressure 30.06 in
Visibility 10.0 miles
Clouds Few 5500 ft
Dew Point 69 °F
Humidity 92%
Rainfall in
Snow Depth Not available.
UV 0 out of 12
Pollen 8.40 out of 12
Air Quality Not available.
Flu Activity Not available.
METAR KMOB 010956Z AUTO 00000KT 10SM FEW055 22/21 A3007 RMK AO2 SLP177 T02170211
Pressure 30.06 in
Visibility 10.0 miles
Clouds Few 5500 ft
Dew Point 69 °F
Humidity 92%
Rainfall in
Snow Depth Not available.
UV 0 out of 12
Pollen 8.40 out of 12
Air Quality Not available.
Flu Activity Not available.
METAR KMOB 010956Z AUTO 00000KT 10SM FEW055 22/21 A3007 RMK AO2 SLP177 T02170211

10-Day Weather Forecast

×

Almanac

Astronomy

Sep. 01, 2015 Rise Set
Actual Time
Civil Twilight
Nautical Twilight
Astronomical Twilight
Moon
Length of Visible Light
Length of Day
Tomorrow will be .
, % of the Moon is Illuminated

Today's Extremes

State Highs State Lows

Community

WunderPhotos

Upload Photos

1,851,501 photos uploaded!

WunderBlogs® & News

Nearby

Air Quality

  Air Quality AQ Index Pollutant
Not available.

Snow Depth

Station Depth Elevation

Earthquake Activity

City Distance Mag. Time & Date
Minimum magnitude displayed is 2.5.

Coastal Water Temperatures

Place Temperature

Stations

Nearby Weather Stations

Station Location Temp. Windchill Dew Point Humidity Wind Precip. Elev Updated Type